Dowagiac, Michigan
Current Conditions -  °F | °C
As of 2:53 PM on Thursday 29 Jan 2015 (Local Time) from KBEH Reporting Station
Haze Haze  
Wind Chill: 25°   Ceiling: 1800
Heat Index: 33°   Visibility: 5mi
Dew Point: 29°   Wind: 10mph
Humidity: 85%   Direction: 320°NW
Pressure: 29.9"   Gusts: 21mph
Location:  41.98°N, 86.11°W
Report Text: KBEH 291953Z AUTO 32009G18KT 280V010 5SM BR OVC018 01/M02 A2990 RMK AO2 SLP132 T00061017
Loading
Personal Weather Stations






























Interactive Weather Map New forecast layout! Learn more

10-Day Weather Forecast

Advertisements
Track Severe Weather on mobile